sensor_id;sensor_type;location;lat;lon;timestamp;P1;durP1;ratioP1;P2;durP2;ratioP2
48574;SDS011;34352;51.084;3.712;2023-06-14T00:01:45;13.25;;;7.78;;
48574;SDS011;34352;51.084;3.712;2023-06-14T00:04:12;15.43;;;7.63;;
48574;SDS011;34352;51.084;3.712;2023-06-14T00:06:38;15.30;;;7.90;;
48574;SDS011;34352;51.084;3.712;2023-06-14T00:09:04;11.45;;;7.82;;
48574;SDS011;34352;51.084;3.712;2023-06-14T00:11:33;9.18;;;7.50;;
48574;SDS011;34352;51.084;3.712;2023-06-14T00:13:59;11.07;;;7.38;;
48574;SDS011;34352;51.084;3.712;2023-06-14T00:16:24;14.25;;;7.72;;
48574;SDS011;34352;51.084;3.712;2023-06-14T00:18:50;12.15;;;7.95;;
48574;SDS011;34352;51.084;3.712;2023-06-14T00:21:16;11.02;;;7.55;;
48574;SDS011;34352;51.084;3.712;2023-06-14T00:23:42;10.52;;;7.85;;
48574;SDS011;34352;51.084;3.712;2023-06-14T00:26:08;12.23;;;8.65;;
48574;SDS011;34352;51.084;3.712;2023-06-14T00:28:34;15.90;;;8.77;;
48574;SDS011;34352;51.084;3.712;2023-06-14T00:30:59;13.13;;;7.97;;
48574;SDS011;34352;51.084;3.712;2023-06-14T00:33:25;11.88;;;7.82;;
48574;SDS011;34352;51.084;3.712;2023-06-14T00:35:51;10.02;;;7.88;;
48574;SDS011;34352;51.084;3.712;2023-06-14T00:38:19;10.05;;;7.57;;
48574;SDS011;34352;51.084;3.712;2023-06-14T00:40:46;13.13;;;7.75;;
48574;SDS011;34352;51.084;3.712;2023-06-14T00:43:12;10.15;;;8.10;;
48574;SDS011;34352;51.084;3.712;2023-06-14T00:45:37;12.38;;;8.00;;
48574;SDS011;34352;51.084;3.712;2023-06-14T00:48:05;10.70;;;8.25;;
48574;SDS011;34352;51.084;3.712;2023-06-14T00:50:34;11.45;;;7.97;;
48574;SDS011;34352;51.084;3.712;2023-06-14T00:53:01;14.32;;;7.90;;
48574;SDS011;34352;51.084;3.712;2023-06-14T00:55:28;10.45;;;8.05;;
48574;SDS011;34352;51.084;3.712;2023-06-14T00:57:54;11.57;;;7.93;;
48574;SDS011;34352;51.084;3.712;2023-06-14T01:00:20;11.73;;;8.18;;
48574;SDS011;34352;51.084;3.712;2023-06-14T01:02:47;12.63;;;8.90;;
48574;SDS011;34352;51.084;3.712;2023-06-14T01:05:12;14.45;;;8.20;;
48574;SDS011;34352;51.084;3.712;2023-06-14T01:15:38;13.30;;;9.13;;
48574;SDS011;34352;51.084;3.712;2023-06-14T01:18:05;11.40;;;9.02;;
48574;SDS011;34352;51.084;3.712;2023-06-14T01:20:31;14.80;;;9.73;;
48574;SDS011;34352;51.084;3.712;2023-06-14T01:23:02;15.13;;;8.98;;
48574;SDS011;34352;51.084;3.712;2023-06-14T01:25:28;11.98;;;9.48;;
48574;SDS011;34352;51.084;3.712;2023-06-14T01:27:58;14.23;;;9.88;;
48574;SDS011;34352;51.084;3.712;2023-06-14T01:30:27;16.63;;;10.18;;
48574;SDS011;34352;51.084;3.712;2023-06-14T01:32:56;12.88;;;9.27;;
48574;SDS011;34352;51.084;3.712;2023-06-14T01:35:22;12.57;;;8.80;;
48574;SDS011;34352;51.084;3.712;2023-06-14T01:37:49;14.38;;;9.40;;
48574;SDS011;34352;51.084;3.712;2023-06-14T01:40:15;12.60;;;8.85;;
48574;SDS011;34352;51.084;3.712;2023-06-14T01:42:42;12.27;;;9.10;;
48574;SDS011;34352;51.084;3.712;2023-06-14T01:45:11;11.05;;;9.10;;
48574;SDS011;34352;51.084;3.712;2023-06-14T01:47:37;12.70;;;9.23;;
48574;SDS011;34352;51.084;3.712;2023-06-14T01:50:03;13.25;;;10.02;;
48574;SDS011;34352;51.084;3.712;2023-06-14T01:52:30;13.43;;;9.85;;
48574;SDS011;34352;51.084;3.712;2023-06-14T01:54:56;16.25;;;9.88;;
48574;SDS011;34352;51.084;3.712;2023-06-14T01:57:23;12.43;;;9.65;;
48574;SDS011;34352;51.084;3.712;2023-06-14T01:59:50;14.27;;;9.90;;
48574;SDS011;34352;51.084;3.712;2023-06-14T02:02:16;15.15;;;10.05;;
48574;SDS011;34352;51.084;3.712;2023-06-14T02:04:41;12.88;;;9.40;;
48574;SDS011;34352;51.084;3.712;2023-06-14T02:07:07;16.00;;;9.00;;
48574;SDS011;34352;51.084;3.712;2023-06-14T02:09:33;14.52;;;9.70;;
48574;SDS011;34352;51.084;3.712;2023-06-14T02:12:01;13.23;;;9.90;;
48574;SDS011;34352;51.084;3.712;2023-06-14T02:14:27;14.52;;;10.13;;
48574;SDS011;34352;51.084;3.712;2023-06-14T02:16:53;18.98;;;11.55;;
48574;SDS011;34352;51.084;3.712;2023-06-14T02:19:19;16.35;;;11.70;;
48574;SDS011;34352;51.084;3.712;2023-06-14T02:21:45;15.68;;;11.45;;
48574;SDS011;34352;51.084;3.712;2023-06-14T02:24:12;17.88;;;11.77;;
48574;SDS011;34352;51.084;3.712;2023-06-14T02:26:38;16.88;;;12.10;;
48574;SDS011;34352;51.084;3.712;2023-06-14T02:29:04;15.43;;;11.70;;
48574;SDS011;34352;51.084;3.712;2023-06-14T02:31:30;18.13;;;10.85;;
48574;SDS011;34352;51.084;3.712;2023-06-14T02:33:57;15.02;;;10.82;;
48574;SDS011;34352;51.084;3.712;2023-06-14T02:36:23;15.30;;;10.30;;
48574;SDS011;34352;51.084;3.712;2023-06-14T02:38:50;14.27;;;10.00;;
48574;SDS011;34352;51.084;3.712;2023-06-14T02:41:15;16.05;;;8.88;;
48574;SDS011;34352;51.084;3.712;2023-06-14T02:43:41;12.30;;;8.55;;
48574;SDS011;34352;51.084;3.712;2023-06-14T02:46:06;13.50;;;9.35;;
48574;SDS011;34352;51.084;3.712;2023-06-14T02:48:32;10.93;;;8.27;;
48574;SDS011;34352;51.084;3.712;2023-06-14T02:50:58;12.65;;;9.20;;
48574;SDS011;34352;51.084;3.712;2023-06-14T02:53:24;11.48;;;8.32;;
48574;SDS011;34352;51.084;3.712;2023-06-14T02:55:49;12.68;;;8.75;;
48574;SDS011;34352;51.084;3.712;2023-06-14T02:58:16;14.73;;;8.90;;
48574;SDS011;34352;51.084;3.712;2023-06-14T03:00:43;15.43;;;10.00;;
48574;SDS011;34352;51.084;3.712;2023-06-14T03:03:09;14.07;;;8.90;;
48574;SDS011;34352;51.084;3.712;2023-06-14T03:05:40;12.15;;;8.57;;
48574;SDS011;34352;51.084;3.712;2023-06-14T03:08:11;15.60;;;8.95;;
48574;SDS011;34352;51.084;3.712;2023-06-14T03:10:42;13.18;;;9.02;;
48574;SDS011;34352;51.084;3.712;2023-06-14T03:13:08;14.60;;;8.70;;
48574;SDS011;34352;51.084;3.712;2023-06-14T03:15:35;17.75;;;8.48;;
48574;SDS011;34352;51.084;3.712;2023-06-14T03:18:01;11.45;;;8.05;;
48574;SDS011;34352;51.084;3.712;2023-06-14T03:20:28;12.98;;;8.77;;
48574;SDS011;34352;51.084;3.712;2023-06-14T03:22:58;9.88;;;8.88;;
48574;SDS011;34352;51.084;3.712;2023-06-14T03:25:24;14.77;;;8.63;;
48574;SDS011;34352;51.084;3.712;2023-06-14T03:27:51;13.13;;;8.35;;
48574;SDS011;34352;51.084;3.712;2023-06-14T03:30:16;13.02;;;8.40;;
48574;SDS011;34352;51.084;3.712;2023-06-14T03:32:42;10.25;;;7.93;;
48574;SDS011;34352;51.084;3.712;2023-06-14T03:35:08;11.40;;;8.43;;
48574;SDS011;34352;51.084;3.712;2023-06-14T03:37:35;13.85;;;8.27;;
48574;SDS011;34352;51.084;3.712;2023-06-14T03:40:00;11.65;;;8.27;;
48574;SDS011;34352;51.084;3.712;2023-06-14T03:42:26;18.55;;;8.90;;
48574;SDS011;34352;51.084;3.712;2023-06-14T03:44:51;16.23;;;9.43;;
48574;SDS011;34352;51.084;3.712;2023-06-14T03:47:17;10.60;;;8.02;;
48574;SDS011;34352;51.084;3.712;2023-06-14T03:49:43;12.60;;;8.27;;
48574;SDS011;34352;51.084;3.712;2023-06-14T03:52:08;14.70;;;8.43;;
48574;SDS011;34352;51.084;3.712;2023-06-14T03:54:34;11.65;;;7.90;;
48574;SDS011;34352;51.084;3.712;2023-06-14T03:57:00;11.57;;;7.82;;
48574;SDS011;34352;51.084;3.712;2023-06-14T03:59:26;11.60;;;8.30;;
48574;SDS011;34352;51.084;3.712;2023-06-14T04:01:51;14.00;;;7.55;;
48574;SDS011;34352;51.084;3.712;2023-06-14T04:04:18;13.48;;;8.18;;
48574;SDS011;34352;51.084;3.712;2023-06-14T04:06:46;15.10;;;7.97;;
48574;SDS011;34352;51.084;3.712;2023-06-14T04:09:13;16.60;;;8.10;;
48574;SDS011;34352;51.084;3.712;2023-06-14T04:11:38;12.95;;;7.25;;
48574;SDS011;34352;51.084;3.712;2023-06-14T04:14:05;14.48;;;8.55;;
48574;SDS011;34352;51.084;3.712;2023-06-14T04:16:31;11.02;;;8.27;;
48574;SDS011;34352;51.084;3.712;2023-06-14T04:18:57;15.38;;;8.60;;
48574;SDS011;34352;51.084;3.712;2023-06-14T04:21:23;12.43;;;8.05;;
48574;SDS011;34352;51.084;3.712;2023-06-14T04:23:48;14.07;;;8.02;;
48574;SDS011;34352;51.084;3.712;2023-06-14T04:26:17;16.58;;;8.60;;
48574;SDS011;34352;51.084;3.712;2023-06-14T04:28:44;14.52;;;8.02;;
48574;SDS011;34352;51.084;3.712;2023-06-14T04:31:12;18.65;;;7.63;;
48574;SDS011;34352;51.084;3.712;2023-06-14T04:33:37;15.88;;;7.50;;
48574;SDS011;34352;51.084;3.712;2023-06-14T04:36:11;13.32;;;7.53;;
48574;SDS011;34352;51.084;3.712;2023-06-14T04:38:38;19.75;;;8.25;;
48574;SDS011;34352;51.084;3.712;2023-06-14T04:41:04;13.52;;;7.40;;
48574;SDS011;34352;51.084;3.712;2023-06-14T04:43:31;12.40;;;7.78;;
48574;SDS011;34352;51.084;3.712;2023-06-14T04:46:06;15.25;;;8.27;;
48574;SDS011;34352;51.084;3.712;2023-06-14T04:48:35;13.18;;;7.97;;
48574;SDS011;34352;51.084;3.712;2023-06-14T04:51:02;23.00;;;8.80;;
48574;SDS011;34352;51.084;3.712;2023-06-14T04:53:29;17.08;;;8.50;;
48574;SDS011;34352;51.084;3.712;2023-06-14T04:55:54;14.07;;;7.55;;
48574;SDS011;34352;51.084;3.712;2023-06-14T04:58:20;18.85;;;8.30;;
48574;SDS011;34352;51.084;3.712;2023-06-14T05:00:46;21.30;;;9.05;;
48574;SDS011;34352;51.084;3.712;2023-06-14T05:03:11;18.90;;;8.63;;
48574;SDS011;34352;51.084;3.712;2023-06-14T05:05:38;14.45;;;8.82;;
48574;SDS011;34352;51.084;3.712;2023-06-14T05:08:05;23.35;;;9.82;;
48574;SDS011;34352;51.084;3.712;2023-06-14T05:10:31;27.38;;;9.52;;
48574;SDS011;34352;51.084;3.712;2023-06-14T05:12:59;18.55;;;8.98;;
48574;SDS011;34352;51.084;3.712;2023-06-14T05:15:25;21.50;;;9.27;;
48574;SDS011;34352;51.084;3.712;2023-06-14T05:17:51;23.45;;;9.45;;
48574;SDS011;34352;51.084;3.712;2023-06-14T05:20:21;20.13;;;9.70;;
48574;SDS011;34352;51.084;3.712;2023-06-14T05:22:50;24.58;;;9.70;;
48574;SDS011;34352;51.084;3.712;2023-06-14T05:25:18;21.35;;;9.75;;
48574;SDS011;34352;51.084;3.712;2023-06-14T05:27:45;26.15;;;10.35;;
48574;SDS011;34352;51.084;3.712;2023-06-14T05:30:11;23.23;;;9.77;;
48574;SDS011;34352;51.084;3.712;2023-06-14T05:32:37;17.08;;;8.90;;
48574;SDS011;34352;51.084;3.712;2023-06-14T05:35:03;13.77;;;9.18;;
48574;SDS011;34352;51.084;3.712;2023-06-14T05:37:29;21.38;;;9.32;;
48574;SDS011;34352;51.084;3.712;2023-06-14T05:39:57;20.10;;;9.45;;
48574;SDS011;34352;51.084;3.712;2023-06-14T05:42:22;19.35;;;9.75;;
48574;SDS011;34352;51.084;3.712;2023-06-14T05:44:48;16.67;;;9.75;;
48574;SDS011;34352;51.084;3.712;2023-06-14T05:47:14;16.40;;;8.68;;
48574;SDS011;34352;51.084;3.712;2023-06-14T05:49:40;20.17;;;9.50;;
48574;SDS011;34352;51.084;3.712;2023-06-14T05:52:06;17.50;;;9.77;;
48574;SDS011;34352;51.084;3.712;2023-06-14T05:54:32;14.50;;;9.48;;
48574;SDS011;34352;51.084;3.712;2023-06-14T05:56:58;14.45;;;9.48;;
48574;SDS011;34352;51.084;3.712;2023-06-14T05:59:29;15.13;;;9.45;;
48574;SDS011;34352;51.084;3.712;2023-06-14T06:01:55;25.70;;;10.20;;
48574;SDS011;34352;51.084;3.712;2023-06-14T06:04:27;21.00;;;10.27;;
48574;SDS011;34352;51.084;3.712;2023-06-14T06:06:53;17.08;;;9.75;;
48574;SDS011;34352;51.084;3.712;2023-06-14T06:09:19;15.70;;;10.05;;
48574;SDS011;34352;51.084;3.712;2023-06-14T06:12:12;18.48;;;9.82;;
48574;SDS011;34352;51.084;3.712;2023-06-14T06:14:43;19.15;;;9.88;;
48574;SDS011;34352;51.084;3.712;2023-06-14T06:17:10;15.63;;;9.32;;
48574;SDS011;34352;51.084;3.712;2023-06-14T06:19:43;14.73;;;9.75;;
48574;SDS011;34352;51.084;3.712;2023-06-14T06:22:10;24.48;;;10.52;;
48574;SDS011;34352;51.084;3.712;2023-06-14T06:27:07;16.17;;;10.45;;
48574;SDS011;34352;51.084;3.712;2023-06-14T06:29:33;16.45;;;10.18;;
48574;SDS011;34352;51.084;3.712;2023-06-14T06:32:00;14.93;;;9.10;;
48574;SDS011;34352;51.084;3.712;2023-06-14T06:34:26;22.50;;;10.13;;
48574;SDS011;34352;51.084;3.712;2023-06-14T06:36:52;20.42;;;9.73;;
48574;SDS011;34352;51.084;3.712;2023-06-14T06:39:18;24.35;;;9.98;;
48574;SDS011;34352;51.084;3.712;2023-06-14T06:41:44;22.83;;;10.60;;
48574;SDS011;34352;51.084;3.712;2023-06-14T06:44:09;19.88;;;10.40;;
48574;SDS011;34352;51.084;3.712;2023-06-14T06:46:35;21.08;;;10.32;;
48574;SDS011;34352;51.084;3.712;2023-06-14T06:49:06;27.30;;;10.63;;
48574;SDS011;34352;51.084;3.712;2023-06-14T06:51:35;20.70;;;10.23;;
48574;SDS011;34352;51.084;3.712;2023-06-14T06:54:03;23.48;;;10.75;;
48574;SDS011;34352;51.084;3.712;2023-06-14T06:56:32;24.25;;;10.43;;
48574;SDS011;34352;51.084;3.712;2023-06-14T06:58:57;18.88;;;9.38;;
48574;SDS011;34352;51.084;3.712;2023-06-14T07:01:24;16.05;;;10.30;;
48574;SDS011;34352;51.084;3.712;2023-06-14T07:03:51;18.42;;;9.65;;
48574;SDS011;34352;51.084;3.712;2023-06-14T07:06:17;18.08;;;9.63;;
48574;SDS011;34352;51.084;3.712;2023-06-14T07:08:44;18.30;;;9.20;;
48574;SDS011;34352;51.084;3.712;2023-06-14T07:11:11;15.38;;;9.30;;
48574;SDS011;34352;51.084;3.712;2023-06-14T07:13:39;10.77;;;9.13;;
48574;SDS011;34352;51.084;3.712;2023-06-14T07:16:05;19.90;;;9.85;;
48574;SDS011;34352;51.084;3.712;2023-06-14T07:18:32;21.83;;;11.55;;
48574;SDS011;34352;51.084;3.712;2023-06-14T07:20:58;22.45;;;10.38;;
48574;SDS011;34352;51.084;3.712;2023-06-14T07:23:28;23.10;;;10.23;;
48574;SDS011;34352;51.084;3.712;2023-06-14T07:25:55;17.52;;;9.93;;
48574;SDS011;34352;51.084;3.712;2023-06-14T07:28:22;18.20;;;9.80;;
48574;SDS011;34352;51.084;3.712;2023-06-14T07:30:48;21.73;;;10.63;;
48574;SDS011;34352;51.084;3.712;2023-06-14T07:33:14;19.77;;;10.23;;
48574;SDS011;34352;51.084;3.712;2023-06-14T07:35:39;17.77;;;10.00;;
48574;SDS011;34352;51.084;3.712;2023-06-14T07:38:07;17.73;;;9.63;;
48574;SDS011;34352;51.084;3.712;2023-06-14T07:40:33;15.63;;;9.75;;
48574;SDS011;34352;51.084;3.712;2023-06-14T07:42:59;20.02;;;9.80;;
48574;SDS011;34352;51.084;3.712;2023-06-14T07:45:27;20.05;;;9.35;;
48574;SDS011;34352;51.084;3.712;2023-06-14T07:47:53;17.02;;;10.35;;
48574;SDS011;34352;51.084;3.712;2023-06-14T07:50:18;20.02;;;10.15;;
48574;SDS011;34352;51.084;3.712;2023-06-14T07:52:44;15.88;;;9.27;;
48574;SDS011;34352;51.084;3.712;2023-06-14T07:55:11;19.73;;;9.13;;
48574;SDS011;34352;51.084;3.712;2023-06-14T07:57:38;17.42;;;10.50;;
48574;SDS011;34352;51.084;3.712;2023-06-14T08:00:05;15.60;;;9.25;;
48574;SDS011;34352;51.084;3.712;2023-06-14T08:02:32;18.45;;;10.25;;
48574;SDS011;34352;51.084;3.712;2023-06-14T08:04:58;16.42;;;9.20;;
48574;SDS011;34352;51.084;3.712;2023-06-14T08:07:24;20.35;;;10.35;;
48574;SDS011;34352;51.084;3.712;2023-06-14T08:09:49;22.90;;;10.07;;
48574;SDS011;34352;51.084;3.712;2023-06-14T08:12:16;17.48;;;9.13;;
48574;SDS011;34352;51.084;3.712;2023-06-14T08:14:42;17.52;;;8.82;;
48574;SDS011;34352;51.084;3.712;2023-06-14T08:17:08;18.42;;;9.65;;
48574;SDS011;34352;51.084;3.712;2023-06-14T08:19:33;16.52;;;9.02;;
48574;SDS011;34352;51.084;3.712;2023-06-14T08:22:00;17.75;;;9.18;;
48574;SDS011;34352;51.084;3.712;2023-06-14T08:24:26;13.65;;;9.07;;
48574;SDS011;34352;51.084;3.712;2023-06-14T08:26:56;13.52;;;7.95;;
48574;SDS011;34352;51.084;3.712;2023-06-14T08:29:22;13.03;;;8.67;;
48574;SDS011;34352;51.084;3.712;2023-06-14T08:31:54;16.13;;;8.27;;
48574;SDS011;34352;51.084;3.712;2023-06-14T08:34:20;14.65;;;8.40;;
48574;SDS011;34352;51.084;3.712;2023-06-14T08:36:46;14.95;;;8.63;;
48574;SDS011;34352;51.084;3.712;2023-06-14T08:39:11;9.90;;;8.20;;
48574;SDS011;34352;51.084;3.712;2023-06-14T08:41:38;16.90;;;8.68;;
48574;SDS011;34352;51.084;3.712;2023-06-14T08:44:04;10.73;;;8.23;;
48574;SDS011;34352;51.084;3.712;2023-06-14T08:46:30;14.80;;;8.57;;
48574;SDS011;34352;51.084;3.712;2023-06-14T08:48:58;13.45;;;7.78;;
48574;SDS011;34352;51.084;3.712;2023-06-14T08:51:26;12.80;;;8.10;;
48574;SDS011;34352;51.084;3.712;2023-06-14T08:54:00;11.27;;;7.57;;
48574;SDS011;34352;51.084;3.712;2023-06-14T08:56:27;14.07;;;7.90;;
48574;SDS011;34352;51.084;3.712;2023-06-14T08:58:54;10.35;;;7.68;;
48574;SDS011;34352;51.084;3.712;2023-06-14T09:01:23;14.60;;;8.13;;
48574;SDS011;34352;51.084;3.712;2023-06-14T09:03:49;12.35;;;8.05;;
48574;SDS011;34352;51.084;3.712;2023-06-14T09:06:15;17.13;;;8.32;;
48574;SDS011;34352;51.084;3.712;2023-06-14T09:08:45;19.50;;;7.72;;
48574;SDS011;34352;51.084;3.712;2023-06-14T09:11:13;12.45;;;7.57;;
48574;SDS011;34352;51.084;3.712;2023-06-14T09:13:41;11.95;;;7.72;;
48574;SDS011;34352;51.084;3.712;2023-06-14T09:16:07;18.77;;;7.75;;
48574;SDS011;34352;51.084;3.712;2023-06-14T09:18:37;13.18;;;6.43;;
48574;SDS011;34352;51.084;3.712;2023-06-14T09:21:06;10.90;;;7.35;;
48574;SDS011;34352;51.084;3.712;2023-06-14T09:23:36;14.25;;;7.78;;
48574;SDS011;34352;51.084;3.712;2023-06-14T09:26:13;12.48;;;7.30;;
48574;SDS011;34352;51.084;3.712;2023-06-14T09:31:19;10.55;;;7.20;;
48574;SDS011;34352;51.084;3.712;2023-06-14T09:33:49;9.95;;;7.82;;
48574;SDS011;34352;51.084;3.712;2023-06-14T09:36:22;11.82;;;7.25;;
48574;SDS011;34352;51.084;3.712;2023-06-14T09:38:56;8.07;;;7.32;;
48574;SDS011;34352;51.084;3.712;2023-06-14T09:41:36;17.00;;;7.13;;
48574;SDS011;34352;51.084;3.712;2023-06-14T09:44:03;13.95;;;7.05;;
48574;SDS011;34352;51.084;3.712;2023-06-14T09:46:31;9.40;;;6.47;;
48574;SDS011;34352;51.084;3.712;2023-06-14T09:49:00;9.43;;;6.50;;
48574;SDS011;34352;51.084;3.712;2023-06-14T09:51:27;11.80;;;6.97;;
48574;SDS011;34352;51.084;3.712;2023-06-14T09:53:57;12.00;;;7.07;;
48574;SDS011;34352;51.084;3.712;2023-06-14T09:56:28;9.30;;;7.00;;
48574;SDS011;34352;51.084;3.712;2023-06-14T09:58:56;10.47;;;6.53;;
48574;SDS011;34352;51.084;3.712;2023-06-14T10:01:23;8.88;;;6.82;;
48574;SDS011;34352;51.084;3.712;2023-06-14T10:03:55;7.63;;;6.40;;
48574;SDS011;34352;51.084;3.712;2023-06-14T10:06:29;12.95;;;7.20;;
48574;SDS011;34352;51.084;3.712;2023-06-14T10:08:56;16.92;;;7.28;;
48574;SDS011;34352;51.084;3.712;2023-06-14T10:11:26;12.57;;;6.85;;
48574;SDS011;34352;51.084;3.712;2023-06-14T10:13:52;8.48;;;6.75;;
48574;SDS011;34352;51.084;3.712;2023-06-14T10:16:24;9.88;;;6.20;;
48574;SDS011;34352;51.084;3.712;2023-06-14T10:21:32;10.05;;;7.15;;
48574;SDS011;34352;51.084;3.712;2023-06-14T10:24:18;10.07;;;7.15;;
48574;SDS011;34352;51.084;3.712;2023-06-14T10:26:53;8.13;;;6.87;;
48574;SDS011;34352;51.084;3.712;2023-06-14T10:29:20;10.55;;;6.72;;
48574;SDS011;34352;51.084;3.712;2023-06-14T10:31:47;10.52;;;6.80;;
48574;SDS011;34352;51.084;3.712;2023-06-14T10:34:26;14.20;;;6.68;;
48574;SDS011;34352;51.084;3.712;2023-06-14T10:37:11;11.20;;;6.63;;
48574;SDS011;34352;51.084;3.712;2023-06-14T10:39:41;11.07;;;6.13;;
48574;SDS011;34352;51.084;3.712;2023-06-14T10:42:11;10.65;;;6.88;;
48574;SDS011;34352;51.084;3.712;2023-06-14T10:44:38;7.35;;;6.65;;
48574;SDS011;34352;51.084;3.712;2023-06-14T10:49:49;7.22;;;6.53;;
48574;SDS011;34352;51.084;3.712;2023-06-14T10:52:17;10.43;;;6.57;;
48574;SDS011;34352;51.084;3.712;2023-06-14T10:55:02;17.50;;;7.75;;
48574;SDS011;34352;51.084;3.712;2023-06-14T10:57:32;7.38;;;6.40;;
48574;SDS011;34352;51.084;3.712;2023-06-14T10:59:59;9.98;;;7.25;;
48574;SDS011;34352;51.084;3.712;2023-06-14T11:05:14;10.55;;;7.15;;
48574;SDS011;34352;51.084;3.712;2023-06-14T11:10:41;7.37;;;6.07;;
48574;SDS011;34352;51.084;3.712;2023-06-14T11:13:09;9.45;;;6.05;;
48574;SDS011;34352;51.084;3.712;2023-06-14T11:15:35;8.73;;;6.43;;
48574;SDS011;34352;51.084;3.712;2023-06-14T11:18:03;8.45;;;6.80;;
48574;SDS011;34352;51.084;3.712;2023-06-14T11:20:31;8.15;;;6.60;;
48574;SDS011;34352;51.084;3.712;2023-06-14T11:22:58;9.98;;;6.93;;
48574;SDS011;34352;51.084;3.712;2023-06-14T11:25:25;9.30;;;6.70;;
48574;SDS011;34352;51.084;3.712;2023-06-14T11:27:54;9.65;;;6.78;;
48574;SDS011;34352;51.084;3.712;2023-06-14T11:30:20;9.90;;;6.30;;
48574;SDS011;34352;51.084;3.712;2023-06-14T11:32:49;13.63;;;7.05;;
48574;SDS011;34352;51.084;3.712;2023-06-14T11:35:18;7.55;;;6.80;;
48574;SDS011;34352;51.084;3.712;2023-06-14T11:37:44;11.23;;;6.82;;
48574;SDS011;34352;51.084;3.712;2023-06-14T11:40:11;15.82;;;7.43;;
48574;SDS011;34352;51.084;3.712;2023-06-14T11:42:38;11.63;;;7.22;;
48574;SDS011;34352;51.084;3.712;2023-06-14T11:45:08;8.98;;;6.82;;
48574;SDS011;34352;51.084;3.712;2023-06-14T11:47:37;7.53;;;6.72;;
48574;SDS011;34352;51.084;3.712;2023-06-14T11:50:08;8.50;;;6.43;;
48574;SDS011;34352;51.084;3.712;2023-06-14T11:52:36;8.73;;;6.68;;
48574;SDS011;34352;51.084;3.712;2023-06-14T11:55:02;11.75;;;6.53;;
48574;SDS011;34352;51.084;3.712;2023-06-14T11:57:35;12.93;;;7.10;;
48574;SDS011;34352;51.084;3.712;2023-06-14T12:00:06;11.35;;;6.55;;
48574;SDS011;34352;51.084;3.712;2023-06-14T12:02:37;8.52;;;6.50;;
48574;SDS011;34352;51.084;3.712;2023-06-14T12:05:06;12.55;;;6.80;;
48574;SDS011;34352;51.084;3.712;2023-06-14T12:07:36;7.80;;;6.75;;
48574;SDS011;34352;51.084;3.712;2023-06-14T12:10:05;7.55;;;6.85;;
48574;SDS011;34352;51.084;3.712;2023-06-14T12:12:35;7.13;;;6.35;;
48574;SDS011;34352;51.084;3.712;2023-06-14T12:15:05;8.63;;;7.00;;
48574;SDS011;34352;51.084;3.712;2023-06-14T12:17:33;11.88;;;6.60;;
48574;SDS011;34352;51.084;3.712;2023-06-14T12:20:04;10.20;;;6.85;;
48574;SDS011;34352;51.084;3.712;2023-06-14T12:22:46;13.48;;;7.22;;
48574;SDS011;34352;51.084;3.712;2023-06-14T12:25:37;9.30;;;6.57;;
48574;SDS011;34352;51.084;3.712;2023-06-14T12:28:08;11.90;;;7.15;;
48574;SDS011;34352;51.084;3.712;2023-06-14T12:30:39;11.85;;;6.78;;
48574;SDS011;34352;51.084;3.712;2023-06-14T12:33:05;10.40;;;7.38;;
48574;SDS011;34352;51.084;3.712;2023-06-14T12:35:32;9.52;;;6.40;;
48574;SDS011;34352;51.084;3.712;2023-06-14T12:37:59;8.75;;;7.05;;
48574;SDS011;34352;51.084;3.712;2023-06-14T12:40:25;11.20;;;6.85;;
48574;SDS011;34352;51.084;3.712;2023-06-14T12:42:51;12.02;;;7.07;;
48574;SDS011;34352;51.084;3.712;2023-06-14T12:45:18;9.02;;;6.75;;
48574;SDS011;34352;51.084;3.712;2023-06-14T12:47:43;10.75;;;6.80;;
48574;SDS011;34352;51.084;3.712;2023-06-14T12:50:09;9.80;;;7.18;;
48574;SDS011;34352;51.084;3.712;2023-06-14T12:52:35;10.63;;;7.47;;
48574;SDS011;34352;51.084;3.712;2023-06-14T12:55:04;10.02;;;7.10;;
48574;SDS011;34352;51.084;3.712;2023-06-14T12:57:31;14.18;;;7.38;;
48574;SDS011;34352;51.084;3.712;2023-06-14T12:59:57;14.00;;;7.05;;
48574;SDS011;34352;51.084;3.712;2023-06-14T13:02:24;12.13;;;6.75;;
48574;SDS011;34352;51.084;3.712;2023-06-14T13:04:50;8.30;;;6.47;;
48574;SDS011;34352;51.084;3.712;2023-06-14T13:07:16;14.13;;;6.55;;
48574;SDS011;34352;51.084;3.712;2023-06-14T13:09:43;8.05;;;6.43;;
48574;SDS011;34352;51.084;3.712;2023-06-14T13:12:10;8.20;;;6.80;;
48574;SDS011;34352;51.084;3.712;2023-06-14T13:14:36;10.63;;;6.90;;
48574;SDS011;34352;51.084;3.712;2023-06-14T13:17:02;7.32;;;6.43;;
48574;SDS011;34352;51.084;3.712;2023-06-14T13:19:28;7.40;;;6.35;;
48574;SDS011;34352;51.084;3.712;2023-06-14T13:21:55;10.80;;;6.70;;
48574;SDS011;34352;51.084;3.712;2023-06-14T13:24:23;13.35;;;6.55;;
48574;SDS011;34352;51.084;3.712;2023-06-14T13:26:53;12.38;;;6.28;;
48574;SDS011;34352;51.084;3.712;2023-06-14T13:29:19;9.73;;;6.35;;
48574;SDS011;34352;51.084;3.712;2023-06-14T13:31:45;13.07;;;6.28;;
48574;SDS011;34352;51.084;3.712;2023-06-14T13:34:10;9.30;;;6.60;;
48574;SDS011;34352;51.084;3.712;2023-06-14T13:36:36;11.25;;;6.78;;
48574;SDS011;34352;51.084;3.712;2023-06-14T13:39:02;10.45;;;6.25;;
48574;SDS011;34352;51.084;3.712;2023-06-14T13:41:28;9.60;;;6.00;;
48574;SDS011;34352;51.084;3.712;2023-06-14T13:46:26;9.00;;;6.13;;
48574;SDS011;34352;51.084;3.712;2023-06-14T13:48:53;10.65;;;6.22;;
48574;SDS011;34352;51.084;3.712;2023-06-14T13:51:19;19.08;;;6.50;;
48574;SDS011;34352;51.084;3.712;2023-06-14T13:53:48;9.48;;;6.35;;
48574;SDS011;34352;51.084;3.712;2023-06-14T13:56:16;9.23;;;5.88;;
48574;SDS011;34352;51.084;3.712;2023-06-14T13:58:43;10.05;;;6.05;;
48574;SDS011;34352;51.084;3.712;2023-06-14T14:01:09;10.85;;;5.78;;
48574;SDS011;34352;51.084;3.712;2023-06-14T14:03:36;21.83;;;6.38;;
48574;SDS011;34352;51.084;3.712;2023-06-14T14:06:03;9.00;;;5.43;;
48574;SDS011;34352;51.084;3.712;2023-06-14T14:08:29;9.38;;;6.07;;
48574;SDS011;34352;51.084;3.712;2023-06-14T14:10:55;7.90;;;5.85;;
48574;SDS011;34352;51.084;3.712;2023-06-14T14:13:21;9.75;;;5.65;;
48574;SDS011;34352;51.084;3.712;2023-06-14T14:15:48;9.05;;;5.43;;
48574;SDS011;34352;51.084;3.712;2023-06-14T14:18:14;6.07;;;5.15;;
48574;SDS011;34352;51.084;3.712;2023-06-14T14:20:40;6.78;;;5.65;;
48574;SDS011;34352;51.084;3.712;2023-06-14T14:23:08;12.55;;;5.70;;
48574;SDS011;34352;51.084;3.712;2023-06-14T14:25:34;12.25;;;5.53;;
48574;SDS011;34352;51.084;3.712;2023-06-14T14:28:00;9.95;;;5.30;;
48574;SDS011;34352;51.084;3.712;2023-06-14T14:30:26;8.85;;;4.93;;
48574;SDS011;34352;51.084;3.712;2023-06-14T14:32:52;8.88;;;4.57;;
48574;SDS011;34352;51.084;3.712;2023-06-14T14:35:18;8.63;;;4.70;;
48574;SDS011;34352;51.084;3.712;2023-06-14T14:37:45;7.80;;;4.28;;
48574;SDS011;34352;51.084;3.712;2023-06-14T14:40:11;9.93;;;4.63;;
48574;SDS011;34352;51.084;3.712;2023-06-14T14:42:37;10.43;;;4.72;;
48574;SDS011;34352;51.084;3.712;2023-06-14T14:45:03;6.40;;;4.50;;
48574;SDS011;34352;51.084;3.712;2023-06-14T14:47:29;12.98;;;4.50;;
48574;SDS011;34352;51.084;3.712;2023-06-14T14:49:56;8.68;;;4.63;;
48574;SDS011;34352;51.084;3.712;2023-06-14T14:52:23;6.40;;;4.40;;
48574;SDS011;34352;51.084;3.712;2023-06-14T14:54:49;8.38;;;4.10;;
48574;SDS011;34352;51.084;3.712;2023-06-14T14:57:15;6.93;;;4.70;;
48574;SDS011;34352;51.084;3.712;2023-06-14T14:59:42;8.25;;;4.10;;
48574;SDS011;34352;51.084;3.712;2023-06-14T15:02:07;7.53;;;4.30;;
48574;SDS011;34352;51.084;3.712;2023-06-14T15:04:34;4.55;;;3.75;;